Terminal Aerodrome Forecast
Issued by NWS Sioux Falls, SD

Home | Current Version | Previous Version | Graphics & Text | Print | Product List | Glossary On
Versions: 1 2 3 4 5 6 7 8 9 10 11 12 13 14 15 16 17 18 19 20 21 22 23 24 25 26 27 28 29 30
398
FTUS43 KFSD 081409 AAA
TAFSUX
TAF AMD
KSUX 081409Z 0814/0912 33011KT P6SM SKC
     FM081500 33011KT P6SM BKN025
     FM081800 32012KT P6SM OVC025
     FM082200 31013KT P6SM SCT025 BKN150
     FM090300 32014KT P6SM FEW020 SCT100=

USA.gov is the U.S. government's official web portal to all federal, state and local government web resources and services.